Time;durP1;ratioP1;P1;durP2;ratioP2;P2;SDS_P1;SDS_P2;PMS_P1;PMS_P2;Temp;Humidity;BMP_temperature;BMP_pressure;BME280_temperature;BME280_humidity;BME280_pressure;Samples;Min_cycle;Max_cycle;Signal;HPM_P1;HPM_P2
2022/06/08 00:02:20;;;;;;;;;;;;;;;;;;5065905;28;20683;-78
2022/06/08 00:04:46;;;;;;;7.30;4.10;;;;;;;;;;5067518;28;19951;-78
2022/06/08 00:07:12;;;;;;;6.53;3.95;;;;;;;;;;5067237;28;20063;-77
2022/06/08 00:09:38;;;;;;;5.38;3.47;;;;;;;;;;5067198;28;20025;-77
2022/06/08 00:12:05;;;;;;;6.70;3.63;;;;;;;;;;5066795;28;20512;-77
2022/06/08 00:14:31;;;;;;;6.03;3.75;;;;;;;;;;5066982;28;20044;-78
2022/06/08 00:16:57;;;;;;;6.65;4.30;;;;;;;;;;5065280;28;20089;-78
2022/06/08 00:19:23;;;;;;;8.43;4.00;;;;;;;;;;5046611;28;20039;-78
2022/06/08 00:21:50;;;;;;;7.03;4.05;;;;;;;;;;5047039;28;20078;-77
2022/06/08 00:24:18;;;;;;;6.30;3.55;;;;;;;;;;5046734;28;20021;-78
2022/06/08 00:26:44;;;;;;;8.32;3.97;;;;;;;;;;5058753;28;20032;-78
2022/06/08 00:29:10;;;;;;;7.15;4.10;;;;;;;;;;5058478;28;20033;-77
2022/06/08 00:31:36;;;;;;;6.70;3.83;;;;;;;;;;5058422;28;20635;-78
2022/06/08 00:34:02;;;;;;;7.18;3.92;;;;;;;;;;5045560;28;20036;-78
2022/06/08 00:36:29;;;;;;;6.95;4.35;;;;;;;;;;5044436;28;20029;-78
2022/06/08 00:38:55;;;;;;;7.30;4.15;;;;;;;;;;5044121;28;20025;-78
2022/06/08 00:41:40;;;;;;;6.40;3.80;;;;;;;;;;5048915;28;20480;-78
2022/06/08 00:44:09;;;;;;;4.95;4.20;;;;;;;;;;5043614;28;20059;-78
2022/06/08 00:46:36;;;;;;;6.30;4.00;;;;;;;;;;5047656;28;20473;-79
2022/06/08 00:49:22;;;;;;;9.63;3.60;;;;;;;;;;5066960;28;20021;-78
2022/06/08 00:51:48;;;;;;;6.40;3.53;;;;;;;;;;5066217;28;20035;-78
2022/06/08 00:54:20;;;;;;;4.85;3.28;;;;;;;;;;5065234;28;20017;-78
2022/06/08 00:56:48;;;;;;;6.18;4.03;;;;;;;;;;5066427;28;20029;-79
2022/06/08 00:59:14;;;;;;;4.95;2.88;;;;;;;;;;5048603;28;20044;-78
2022/06/08 01:01:41;;;;;;;6.18;3.00;;;;;;;;;;5047058;28;20036;-77
2022/06/08 01:04:11;;;;;;;5.15;3.45;;;;;;;;;;5046396;28;20118;-78
2022/06/08 01:06:37;;;;;;;6.85;4.20;;;;;;;;;;5045062;28;20025;-78
2022/06/08 01:09:04;;;;;;;5.45;4.00;;;;;;;;;;5046435;28;20029;-78
2022/06/08 01:11:33;;;;;;;5.80;3.75;;;;;;;;;;5046149;28;20021;-77
2022/06/08 01:14:01;;;;;;;8.07;3.90;;;;;;;;;;5048337;28;20078;-78
2022/06/08 01:16:27;;;;;;;6.25;3.47;;;;;;;;;;5050631;28;20036;-77
2022/06/08 01:18:53;;;;;;;9.93;3.80;;;;;;;;;;5050280;28;20496;-78
2022/06/08 01:21:22;;;;;;;6.90;4.38;;;;;;;;;;5049162;28;20032;-78
2022/06/08 01:23:50;;;;;;;8.20;4.35;;;;;;;;;;5054465;28;20024;-77
2022/06/08 01:26:25;;;;;;;9.80;4.93;;;;;;;;;;5070254;28;20027;-77
2022/06/08 01:29:00;;;;;;;6.88;4.00;;;;;;;;;;5070126;28;20024;-78
2022/06/08 01:31:43;;;;;;;8.38;4.00;;;;;;;;;;5050006;28;20029;-78
2022/06/08 01:34:15;;;;;;;8.38;4.15;;;;;;;;;;5050519;28;20029;-78
2022/06/08 01:36:47;;;;;;;5.20;3.20;;;;;;;;;;5048639;28;20031;-78
2022/06/08 01:39:20;;;;;;;4.47;3.45;;;;;;;;;;5049742;28;20028;-78
2022/06/08 01:41:46;;;;;;;7.65;3.78;;;;;;;;;;5050133;28;20107;-77
2022/06/08 01:44:31;;;;;;;7.72;3.90;;;;;;;;;;5048538;28;20032;-78
2022/06/08 01:47:29;;;;;;;6.55;3.20;;;;;;;;;;5050076;28;20021;-78
2022/06/08 01:49:55;;;;;;;5.40;3.40;;;;;;;;;;5041180;28;20072;-78
2022/06/08 01:52:30;;;;;;;7.88;3.83;;;;;;;;;;5061536;28;20025;-78
2022/06/08 01:55:26;;;;;;;5.55;3.65;;;;;;;;;;5049776;28;20056;-77
2022/06/08 01:57:52;;;;;;;4.70;3.60;;;;;;;;;;5040638;28;20041;-77
2022/06/08 02:00:20;;;;;;;4.85;4.07;;;;;;;;;;5049591;28;20086;-78
2022/06/08 02:03:00;;;;;;;7.85;4.03;;;;;;;;;;5049704;28;20368;-78
2022/06/08 02:05:41;;;;;;;11.77;3.80;;;;;;;;;;5050240;28;20070;-78
2022/06/08 02:08:18;;;;;;;4.15;3.10;;;;;;;;;;5047902;28;20029;-77
2022/06/08 02:10:54;;;;;;;5.95;2.88;;;;;;;;;;5049546;28;20025;-78
2022/06/08 02:13:29;;;;;;;5.10;3.08;;;;;;;;;;5049675;28;20044;-78
2022/06/08 02:15:58;;;;;;;7.93;2.83;;;;;;;;;;5049375;28;20401;-77
2022/06/08 02:18:29;;;;;;;4.78;2.90;;;;;;;;;;5049196;28;20629;-77
2022/06/08 02:21:13;;;;;;;4.15;2.95;;;;;;;;;;5047763;28;20044;-78
2022/06/08 02:23:43;;;;;;;5.78;3.22;;;;;;;;;;5056201;28;20029;-77
2022/06/08 02:26:13;;;;;;;4.57;3.00;;;;;;;;;;5065057;28;20020;-78
2022/06/08 02:28:48;;;;;;;5.68;2.90;;;;;;;;;;5067516;28;20389;-78
2022/06/08 02:31:18;;;;;;;4.93;2.80;;;;;;;;;;5069121;28;20369;-78
2022/06/08 02:36:40;;;;;;;4.22;2.70;;;;;;;;;;5062293;28;20563;-78
2022/06/08 02:39:10;;;;;;;4.60;2.60;;;;;;;;;;5047202;28;20140;-77
2022/06/08 02:41:38;;;;;;;5.25;3.00;;;;;;;;;;5049132;28;20028;-77
2022/06/08 02:44:06;;;;;;;3.95;2.60;;;;;;;;;;5049287;28;20032;-78
2022/06/08 02:46:47;;;;;;;3.55;2.92;;;;;;;;;;5049137;28;20021;-77
2022/06/08 02:49:13;;;;;;;6.05;3.00;;;;;;;;;;5047466;28;20036;-77
2022/06/08 02:51:44;;;;;;;7.13;3.95;;;;;;;;;;5060079;28;20028;-77
2022/06/08 02:54:14;;;;;;;6.20;3.28;;;;;;;;;;5068923;28;20182;-77
2022/06/08 02:56:47;;;;;;;2.90;2.60;;;;;;;;;;5068351;28;20030;-77
2022/06/08 02:59:29;;;;;;;4.93;2.80;;;;;;;;;;5067096;28;20037;-78
2022/06/08 03:02:14;;;;;;;5.05;2.40;;;;;;;;;;5068350;28;20033;-78
2022/06/08 03:04:43;;;;;;;5.68;2.78;;;;;;;;;;5068545;28;20028;-78
2022/06/08 03:07:13;;;;;;;4.32;2.58;;;;;;;;;;5063966;28;20029;-78
2022/06/08 03:09:41;;;;;;;5.25;3.08;;;;;;;;;;5061140;28;20025;-78
2022/06/08 03:12:14;;;;;;;4.15;2.80;;;;;;;;;;5063605;28;20024;-78
2022/06/08 03:14:42;;;;;;;3.95;2.63;;;;;;;;;;5055766;28;20523;-78
2022/06/08 03:17:11;;;;;;;7.68;2.78;;;;;;;;;;5054291;28;20384;-78
2022/06/08 03:19:37;;;;;;;5.22;2.95;;;;;;;;;;5058174;28;20144;-78
2022/06/08 03:22:05;;;;;;;3.88;2.20;;;;;;;;;;5058929;28;20067;-78
2022/06/08 03:24:31;;;;;;;6.53;2.60;;;;;;;;;;5060933;28;20021;-78
2022/06/08 03:27:00;;;;;;;3.90;2.65;;;;;;;;;;5060848;28;20614;-78
2022/06/08 03:29:26;;;;;;;3.63;2.33;;;;;;;;;;5059341;28;20031;-78
2022/06/08 03:31:53;;;;;;;4.18;2.30;;;;;;;;;;5060424;28;20033;-78
2022/06/08 03:34:19;;;;;;;5.10;2.97;;;;;;;;;;5060433;28;20016;-77
2022/06/08 03:36:45;;;;;;;6.35;2.55;;;;;;;;;;5059893;28;20043;-78
2022/06/08 03:39:12;;;;;;;10.38;2.65;;;;;;;;;;5059269;28;20392;-78
2022/06/08 03:41:38;;;;;;;3.88;2.20;;;;;;;;;;5060484;28;20021;-77
2022/06/08 03:44:05;;;;;;;4.18;2.40;;;;;;;;;;5060412;28;20031;-78
2022/06/08 03:46:33;;;;;;;7.45;2.60;;;;;;;;;;5060540;28;20024;-77
2022/06/08 03:48:59;;;;;;;2.97;2.25;;;;;;;;;;5060579;28;20416;-78
2022/06/08 03:51:25;;;;;;;2.67;2.17;;;;;;;;;;5049380;28;20028;-78
2022/06/08 03:53:55;;;;;;;3.63;2.15;;;;;;;;;;5039540;28;20028;-78
2022/06/08 03:56:23;;;;;;;3.17;2.20;;;;;;;;;;5040161;28;20481;-78
2022/06/08 03:58:49;;;;;;;4.10;2.25;;;;;;;;;;5040299;28;20472;-77
2022/06/08 04:01:16;;;;;;;4.63;2.35;;;;;;;;;;5040689;28;20029;-78
2022/06/08 04:03:42;;;;;;;5.53;2.63;;;;;;;;;;5038628;28;20059;-78
2022/06/08 04:06:09;;;;;;;3.65;2.00;;;;;;;;;;5039991;28;20028;-77
2022/06/08 04:08:37;;;;;;;4.13;2.60;;;;;;;;;;5040065;28;20021;-77
2022/06/08 04:11:04;;;;;;;4.70;3.08;;;;;;;;;;5039885;28;20032;-78
2022/06/08 04:13:30;;;;;;;4.20;3.17;;;;;;;;;;5038342;28;20044;-77
2022/06/08 04:15:56;;;;;;;8.75;3.80;;;;;;;;;;5039485;28;20032;-77
2022/06/08 04:18:23;;;;;;;9.30;4.03;;;;;;;;;;5039438;28;20455;-79
2022/06/08 04:20:51;;;;;;;5.22;3.83;;;;;;;;;;5043483;28;20107;-77
2022/06/08 04:23:18;;;;;;;7.82;4.18;;;;;;;;;;5058506;28;20537;-78
2022/06/08 04:25:45;;;;;;;5.93;4.15;;;;;;;;;;5059535;28;20035;-79
2022/06/08 04:28:13;;;;;;;8.98;4.75;;;;;;;;;;5059600;28;20035;-78
2022/06/08 04:30:39;;;;;;;10.00;4.30;;;;;;;;;;5059243;28;20575;-77
2022/06/08 04:33:06;;;;;;;6.78;4.20;;;;;;;;;;5059439;28;20033;-77
2022/06/08 04:35:32;;;;;;;10.40;4.85;;;;;;;;;;5057902;28;20134;-78
2022/06/08 04:37:59;;;;;;;10.75;4.82;;;;;;;;;;5059526;28;20034;-78
2022/06/08 04:40:26;;;;;;;12.38;5.20;;;;;;;;;;5060097;28;20033;-79
2022/06/08 04:42:52;;;;;;;9.07;5.72;;;;;;;;;;5047188;28;20369;-78
2022/06/08 04:45:18;;;;;;;8.85;5.65;;;;;;;;;;5039758;28;20405;-78
2022/06/08 04:47:45;;;;;;;10.13;5.63;;;;;;;;;;5037389;28;20044;-79
2022/06/08 04:50:11;;;;;;;10.00;5.93;;;;;;;;;;5039222;28;20029;-78
2022/06/08 04:52:37;;;;;;;8.32;5.05;;;;;;;;;;5039721;28;20021;-79
2022/06/08 04:55:05;;;;;;;6.88;4.68;;;;;;;;;;5037354;28;20022;-78
2022/06/08 04:57:34;;;;;;;15.57;5.45;;;;;;;;;;5038370;28;20036;-78
2022/06/08 05:00:00;;;;;;;10.63;5.55;;;;;;;;;;5039352;28;20202;-78
2022/06/08 05:02:47;;;;;;;9.73;5.82;;;;;;;;;;5039533;28;20017;-78
2022/06/08 05:05:15;;;;;;;9.35;5.55;;;;;;;;;;5042336;28;20070;-79
2022/06/08 05:07:41;;;;;;;9.98;5.95;;;;;;;;;;5055631;28;20448;-78
2022/06/08 05:10:08;;;;;;;8.18;5.40;;;;;;;;;;5055768;28;20016;-78
2022/06/08 05:12:36;;;;;;;8.60;5.13;;;;;;;;;;5057561;28;20032;-79
2022/06/08 05:15:02;;;;;;;8.32;5.15;;;;;;;;;;5046854;28;20083;-77
2022/06/08 05:17:28;;;;;;;9.48;5.00;;;;;;;;;;5054309;28;20032;-78
2022/06/08 05:19:54;;;;;;;7.57;5.18;;;;;;;;;;5057821;28;20036;-78
2022/06/08 05:22:20;;;;;;;10.85;5.10;;;;;;;;;;5058433;28;20745;-76
2022/06/08 05:24:46;;;;;;;9.38;5.85;;;;;;;;;;5057682;28;20032;-77
2022/06/08 05:27:12;;;;;;;8.05;5.53;;;;;;;;;;5059373;28;20028;-77
2022/06/08 05:29:39;;;;;;;6.78;5.20;;;;;;;;;;5059613;28;20106;-77
2022/06/08 05:32:05;;;;;;;9.25;5.05;;;;;;;;;;5058392;28;20168;-77
2022/06/08 05:34:31;;;;;;;9.15;6.00;;;;;;;;;;5048366;28;20025;-77
2022/06/08 05:36:57;;;;;;;11.45;5.93;;;;;;;;;;5039249;28;20522;-77
2022/06/08 05:39:23;;;;;;;8.00;6.05;;;;;;;;;;5038779;28;20045;-77
2022/06/08 05:41:49;;;;;;;7.88;5.88;;;;;;;;;;5038925;28;20029;-77
2022/06/08 05:44:19;;;;;;;11.02;6.70;;;;;;;;;;5039387;28;20017;-77
2022/06/08 05:46:45;;;;;;;9.13;5.95;;;;;;;;;;5038542;28;20036;-77
2022/06/08 05:49:11;;;;;;;10.23;6.30;;;;;;;;;;5037212;28;20192;-77
2022/06/08 05:51:37;;;;;;;9.25;5.70;;;;;;;;;;5038392;28;20025;-77
2022/06/08 05:54:04;;;;;;;11.43;6.20;;;;;;;;;;5036204;28;20029;-77
2022/06/08 05:56:30;;;;;;;8.63;5.82;;;;;;;;;;5038495;28;20037;-77
2022/06/08 05:58:57;;;;;;;13.23;8.45;;;;;;;;;;5038818;28;20033;-77
2022/06/08 06:01:23;;;;;;;28.30;20.73;;;;;;;;;;5040348;28;20071;-77
2022/06/08 06:03:51;;;;;;;26.85;17.10;;;;;;;;;;5052487;28;20028;-78
2022/06/08 06:06:17;;;;;;;10.63;8.20;;;;;;;;;;5061649;28;20231;-77
2022/06/08 06:08:45;;;;;;;13.52;7.68;;;;;;;;;;5061522;28;20025;-78
2022/06/08 06:11:13;;;;;;;13.02;7.20;;;;;;;;;;5062265;28;20024;-77
2022/06/08 06:13:39;;;;;;;13.40;6.88;;;;;;;;;;5059997;28;20227;-77
2022/06/08 06:16:06;;;;;;;12.00;7.68;;;;;;;;;;5047543;28;20016;-79
2022/06/08 06:18:32;;;;;;;15.48;7.03;;;;;;;;;;5061864;28;20575;-77
2022/06/08 06:20:58;;;;;;;12.30;7.28;;;;;;;;;;5062170;28;20032;-77
2022/06/08 06:23:26;;;;;;;13.15;6.93;;;;;;;;;;5062193;28;20073;-78
2022/06/08 06:25:52;;;;;;;12.02;6.75;;;;;;;;;;5060353;28;20021;-77
2022/06/08 06:28:18;;;;;;;12.48;7.22;;;;;;;;;;5061817;28;20024;-77
2022/06/08 06:30:44;;;;;;;12.63;6.45;;;;;;;;;;5061730;28;20029;-78
2022/06/08 06:33:14;;;;;;;9.60;6.20;;;;;;;;;;5056815;28;20039;-78
2022/06/08 06:35:41;;;;;;;10.55;7.10;;;;;;;;;;5041942;28;20029;-76
2022/06/08 06:38:08;;;;;;;13.80;6.65;;;;;;;;;;5041408;28;20021;-78
2022/06/08 06:40:35;;;;;;;10.85;6.53;;;;;;;;;;5042172;28;20382;-78
2022/06/08 06:43:01;;;;;;;17.17;7.70;;;;;;;;;;5040029;28;20641;-78
2022/06/08 06:45:28;;;;;;;12.25;6.93;;;;;;;;;;5041872;28;20916;-78
2022/06/08 06:47:54;;;;;;;11.75;7.68;;;;;;;;;;5041351;28;20095;-78
2022/06/08 06:50:20;;;;;;;13.98;8.07;;;;;;;;;;5041767;28;20029;-79
2022/06/08 06:52:47;;;;;;;12.43;6.47;;;;;;;;;;5041346;28;20473;-81
2022/06/08 06:55:22;;;;;;;9.18;5.53;;;;;;;;;;5043637;28;20440;-80
2022/06/08 06:57:48;;;;;;;7.10;4.22;;;;;;;;;;5043298;28;20362;-81
2022/06/08 07:00:16;;;;;;;9.40;3.88;;;;;;;;;;5043254;28;20037;-81
2022/06/08 07:02:44;;;;;;;5.30;3.58;;;;;;;;;;5048287;28;20032;-83
2022/06/08 07:05:31;;;;;;;12.50;4.88;;;;;;;;;;5052948;28;20447;-82
2022/06/08 07:07:57;;;;;;;5.90;3.40;;;;;;;;;;5043698;28;20033;-86
2022/06/08 07:10:23;;;;;;;5.18;3.05;;;;;;;;;;5056565;28;20052;-84
2022/06/08 07:12:50;;;;;;;4.60;2.53;;;;;;;;;;5046114;28;20401;-81
2022/06/08 07:15:17;;;;;;;6.32;2.47;;;;;;;;;;5060277;28;20121;-83
2022/06/08 07:17:46;;;;;;;4.97;2.30;;;;;;;;;;5043921;28;20676;-84
2022/06/08 07:20:13;;;;;;;3.58;2.40;;;;;;;;;;5041675;28;20094;-82
2022/06/08 07:22:39;;;;;;;5.50;3.22;;;;;;;;;;5055857;28;20074;-83
2022/06/08 07:25:07;;;;;;;4.38;2.15;;;;;;;;;;5052024;28;20060;-83
2022/06/08 07:27:33;;;;;;;4.28;2.33;;;;;;;;;;5059281;28;20370;-78
2022/06/08 07:29:59;;;;;;;2.33;2.00;;;;;;;;;;5049120;28;20032;-87
2022/06/08 07:32:25;;;;;;;5.53;3.20;;;;;;;;;;5053848;28;20103;-80
2022/06/08 07:34:51;;;;;;;6.45;3.30;;;;;;;;;;5052346;28;20036;-82
2022/06/08 07:37:18;;;;;;;3.38;2.42;;;;;;;;;;5046821;28;20021;-80
2022/06/08 07:39:44;;;;;;;2.40;1.98;;;;;;;;;;5048725;28;20033;-79
2022/06/08 07:42:10;;;;;;;4.05;2.55;;;;;;;;;;5039997;28;20468;-85
2022/06/08 07:44:36;;;;;;;4.63;2.30;;;;;;;;;;5048535;28;20043;-83
2022/06/08 07:47:02;;;;;;;4.82;2.67;;;;;;;;;;5056193;28;20538;-85
2022/06/08 07:49:39;;;;;;;5.47;2.60;;;;;;;;;;5059200;28;20024;-82
2022/06/08 07:52:06;;;;;;;6.10;2.42;;;;;;;;;;5046793;28;20036;-86
2022/06/08 07:54:32;;;;;;;4.38;2.33;;;;;;;;;;5047070;28;20029;-85
2022/06/08 07:57:00;;;;;;;5.68;2.80;;;;;;;;;;5049357;28;20035;-82
2022/06/08 07:59:29;;;;;;;5.20;2.47;;;;;;;;;;5051149;28;20373;-82
2022/06/08 08:01:55;;;;;;;2.63;2.05;;;;;;;;;;5048503;28;20036;-84
2022/06/08 08:04:21;;;;;;;3.22;2.00;;;;;;;;;;5041804;28;20035;-83
2022/06/08 08:06:47;;;;;;;3.92;2.72;;;;;;;;;;5053867;28;20016;-84
2022/06/08 08:09:17;;;;;;;3.75;2.60;;;;;;;;;;5041414;28;20033;-81
2022/06/08 08:11:44;;;;;;;3.25;2.20;;;;;;;;;;5040223;28;20687;-83
2022/06/08 08:14:10;;;;;;;3.15;2.30;;;;;;;;;;5048150;28;20063;-81
2022/06/08 08:16:37;;;;;;;6.25;2.50;;;;;;;;;;5049718;28;20028;-82
2022/06/08 08:19:03;;;;;;;3.70;2.20;;;;;;;;;;5059546;28;20044;-82
2022/06/08 08:21:30;;;;;;;4.53;2.28;;;;;;;;;;5060053;28;20017;-81
2022/06/08 08:23:56;;;;;;;3.63;2.42;;;;;;;;;;5061260;28;20101;-81
2022/06/08 08:26:22;;;;;;;3.15;2.25;;;;;;;;;;5061402;28;20028;-85
2022/06/08 08:28:48;;;;;;;4.10;2.42;;;;;;;;;;5045800;28;20106;-83
2022/06/08 08:31:14;;;;;;;2.97;2.50;;;;;;;;;;5041815;28;20029;-82
2022/06/08 08:33:40;;;;;;;3.78;2.47;;;;;;;;;;5051402;28;20091;-83
2022/06/08 08:36:07;;;;;;;4.05;2.47;;;;;;;;;;5045682;28;20021;-84
2022/06/08 08:38:33;;;;;;;3.30;2.83;;;;;;;;;;5045108;28;20496;-82
2022/06/08 08:41:00;;;;;;;6.07;3.38;;;;;;;;;;5047383;28;20055;-83
2022/06/08 08:43:34;;;;;;;3.33;2.58;;;;;;;;;;5051555;28;20067;-84
2022/06/08 08:46:18;;;;;;;3.00;2.40;;;;;;;;;;5042054;28;20024;-80
2022/06/08 08:49:04;;;;;;;5.47;4.20;;;;;;;;;;5044544;28;20060;-82
2022/06/08 08:51:43;;;;;;;5.63;3.40;;;;;;;;;;5043839;28;20063;-82
2022/06/08 08:54:28;;;;;;;3.15;2.83;;;;;;;;;;5049773;28;20017;-81
2022/06/08 08:57:12;;;;;;;4.80;2.58;;;;;;;;;;5045455;28;20854;-83
2022/06/08 08:59:42;;;;;;;4.25;3.10;;;;;;;;;;5049612;28;20029;-89
2022/06/08 09:05:15;;;;;;;3.13;2.63;;;;;;;;;;5042263;28;20562;-84
2022/06/08 09:07:42;;;;;;;8.13;3.80;;;;;;;;;;5048011;28;20033;-83
2022/06/08 09:10:15;;;;;;;4.63;3.60;;;;;;;;;;5042035;28;20029;-84
2022/06/08 09:12:44;;;;;;;4.93;3.58;;;;;;;;;;5059218;28;20028;-83
2022/06/08 09:15:10;;;;;;;5.03;3.47;;;;;;;;;;5048428;28;20098;-84
2022/06/08 09:17:38;;;;;;;4.00;2.60;;;;;;;;;;5059946;28;20021;-83
2022/06/08 09:20:21;;;;;;;3.55;2.65;;;;;;;;;;5057455;28;20044;-83
2022/06/08 09:22:49;;;;;;;4.47;2.85;;;;;;;;;;5052206;28;20112;-79
2022/06/08 09:25:29;;;;;;;5.05;3.10;;;;;;;;;;5045106;28;20029;-82
2022/06/08 09:27:56;;;;;;;8.32;3.67;;;;;;;;;;5053291;28;20032;-81
2022/06/08 09:30:32;;;;;;;4.65;3.08;;;;;;;;;;5050945;28;20020;-83
2022/06/08 09:32:59;;;;;;;5.43;2.38;;;;;;;;;;5045830;28;20027;-83
2022/06/08 09:35:35;;;;;;;4.90;2.28;;;;;;;;;;5051699;28;20440;-85
2022/06/08 09:38:04;;;;;;;4.85;2.65;;;;;;;;;;5046918;28;20028;-82
2022/06/08 09:40:39;;;;;;;3.72;2.40;;;;;;;;;;5054522;28;20040;-82
2022/06/08 09:43:10;;;;;;;3.72;2.00;;;;;;;;;;5045318;28;20024;-80
2022/06/08 09:45:43;;;;;;;4.90;2.92;;;;;;;;;;5063324;28;20021;-85
2022/06/08 09:51:25;;;;;;;4.55;2.22;;;;;;;;;;5047089;28;20115;-85
2022/06/08 09:53:58;;;;;;;4.57;3.15;;;;;;;;;;5063601;28;20032;-87
2022/06/08 09:56:39;;;;;;;11.90;3.80;;;;;;;;;;5054387;28;20024;-83
2022/06/08 09:59:31;;;;;;;5.30;2.50;;;;;;;;;;5063027;28;20151;-82
2022/06/08 10:02:15;;;;;;;2.85;2.45;;;;;;;;;;5049500;28;20029;-81
2022/06/08 10:04:45;;;;;;;4.90;2.50;;;;;;;;;;5044131;28;20090;-80
2022/06/08 10:07:14;;;;;;;4.22;2.05;;;;;;;;;;5043597;28;20040;-80
2022/06/08 10:09:43;;;;;;;5.03;2.63;;;;;;;;;;5044200;28;20036;-79
2022/06/08 10:12:29;;;;;;;2.83;2.50;;;;;;;;;;5043829;28;20429;-80
2022/06/08 10:15:08;;;;;;;3.90;2.08;;;;;;;;;;5024944;28;20045;-81
2022/06/08 10:17:42;;;;;;;3.70;2.08;;;;;;;;;;5060957;28;20047;-79
2022/06/08 10:20:14;;;;;;;6.13;2.47;;;;;;;;;;5049830;28;20041;-81
2022/06/08 10:22:45;;;;;;;3.33;2.38;;;;;;;;;;5044569;28;20021;-83
2022/06/08 10:25:17;;;;;;;2.70;1.80;;;;;;;;;;5045734;28;20032;-78
2022/06/08 10:27:46;;;;;;;3.53;2.33;;;;;;;;;;5044351;28;20024;-77
2022/06/08 10:30:22;;;;;;;4.50;2.70;;;;;;;;;;5063525;28;20548;-79
2022/06/08 10:33:11;;;;;;;3.63;2.30;;;;;;;;;;5063642;28;20032;-79
2022/06/08 10:35:57;;;;;;;3.35;2.28;;;;;;;;;;5061729;28;20064;-79
2022/06/08 10:38:29;;;;;;;2.58;2.25;;;;;;;;;;5051536;28;20035;-81
2022/06/08 10:40:55;;;;;;;3.28;2.20;;;;;;;;;;5054050;28;20029;-83
2022/06/08 10:43:24;;;;;;;2.72;2.20;;;;;;;;;;5054009;28;20086;-83
2022/06/08 10:46:01;;;;;;;5.28;2.20;;;;;;;;;;5055363;28;20352;-83
2022/06/08 10:48:27;;;;;;;4.45;3.30;;;;;;;;;;5049194;28;20668;-81
2022/06/08 10:51:12;;;;;;;5.38;3.50;;;;;;;;;;5054339;28;20220;-82
2022/06/08 10:56:23;;;;;;;13.23;3.03;;;;;;;;;;5043568;28;20132;-81
2022/06/08 10:59:05;;;;;;;5.15;2.25;;;;;;;;;;5049764;28;20056;-80
2022/06/08 11:01:36;;;;;;;3.42;2.10;;;;;;;;;;5047933;28;20025;-81
2022/06/08 11:04:05;;;;;;;3.42;2.25;;;;;;;;;;5041707;28;20396;-81
2022/06/08 11:06:47;;;;;;;4.03;2.15;;;;;;;;;;5053399;28;20024;-81
2022/06/08 11:09:20;;;;;;;2.65;1.90;;;;;;;;;;5050053;28;20021;-82
2022/06/08 11:11:50;;;;;;;4.93;2.50;;;;;;;;;;5039357;28;20029;-82
2022/06/08 11:14:29;;;;;;;3.38;2.38;;;;;;;;;;5052456;28;20470;-82
2022/06/08 11:16:56;;;;;;;5.72;2.53;;;;;;;;;;5052491;28;20599;-82
2022/06/08 11:19:24;;;;;;;7.03;3.45;;;;;;;;;;5058935;28;20051;-81
2022/06/08 11:21:58;;;;;;;3.78;3.10;;;;;;;;;;5059092;28;20027;-82
2022/06/08 11:24:24;;;;;;;4.55;2.33;;;;;;;;;;5058212;28;20085;-82
2022/06/08 11:26:53;;;;;;;4.53;2.63;;;;;;;;;;5059630;28;20025;-82
2022/06/08 11:29:22;;;;;;;5.20;2.05;;;;;;;;;;5059259;28;20032;-82
2022/06/08 11:31:48;;;;;;;6.00;2.40;;;;;;;;;;5060279;28;20028;-82
2022/06/08 11:34:18;;;;;;;4.38;2.15;;;;;;;;;;5041468;28;20573;-82
2022/06/08 11:36:52;;;;;;;5.80;2.63;;;;;;;;;;5059977;28;20040;-81
2022/06/08 11:39:38;;;;;;;5.38;2.95;;;;;;;;;;5043696;28;20043;-82
2022/06/08 11:42:22;;;;;;;3.90;2.28;;;;;;;;;;5040064;28;20025;-81
2022/06/08 11:44:55;;;;;;;8.75;3.03;;;;;;;;;;5042507;28;20025;-82
2022/06/08 11:47:28;;;;;;;4.45;2.40;;;;;;;;;;5052489;28;20024;-81
2022/06/08 11:49:57;;;;;;;3.80;2.35;;;;;;;;;;5040308;28;20124;-81
2022/06/08 11:52:25;;;;;;;4.18;2.67;;;;;;;;;;5040147;28;20035;-82
2022/06/08 11:55:11;;;;;;;3.90;1.83;;;;;;;;;;5038969;28;20658;-81
2022/06/08 11:57:40;;;;;;;3.42;1.80;;;;;;;;;;5036096;28;20022;-81
2022/06/08 12:00:16;;;;;;;3.45;1.90;;;;;;;;;;5056169;28;20036;-81
2022/06/08 12:02:42;;;;;;;3.63;2.22;;;;;;;;;;5052257;28;20021;-81
2022/06/08 12:05:08;;;;;;;3.63;1.73;;;;;;;;;;5039420;28;20047;-81
2022/06/08 12:07:42;;;;;;;3.70;2.10;;;;;;;;;;5039746;28;20035;-81
2022/06/08 12:10:11;;;;;;;5.18;2.33;;;;;;;;;;5047023;28;20029;-82
2022/06/08 12:12:37;;;;;;;4.68;2.40;;;;;;;;;;5039691;28;20063;-81
2022/06/08 12:15:22;;;;;;;3.75;2.17;;;;;;;;;;5039378;28;20049;-81
2022/06/08 12:17:48;;;;;;;5.15;2.30;;;;;;;;;;5037832;28;20047;-81
2022/06/08 12:20:32;;;;;;;2.30;2.10;;;;;;;;;;5039456;28;20581;-81
2022/06/08 12:23:00;;;;;;;5.65;2.10;;;;;;;;;;5045869;28;20100;-81
2022/06/08 12:25:27;;;;;;;4.45;2.20;;;;;;;;;;5059673;28;20031;-81
2022/06/08 12:27:58;;;;;;;3.28;2.40;;;;;;;;;;5039964;28;20035;-81
2022/06/08 12:30:26;;;;;;;4.05;2.50;;;;;;;;;;5039471;28;20409;-81
2022/06/08 12:32:56;;;;;;;4.10;2.17;;;;;;;;;;5037959;28;20579;-82
2022/06/08 12:35:24;;;;;;;2.10;1.75;;;;;;;;;;5039562;28;20048;-81
2022/06/08 12:38:01;;;;;;;2.53;1.90;;;;;;;;;;5038792;28;20106;-81
2022/06/08 12:40:29;;;;;;;3.58;2.22;;;;;;;;;;5038653;28;20106;-81
2022/06/08 12:43:13;;;;;;;4.30;2.60;;;;;;;;;;5039270;28;20032;-81
2022/06/08 12:45:43;;;;;;;3.38;2.00;;;;;;;;;;5037599;28;20052;-82
2022/06/08 12:48:21;;;;;;;5.20;2.50;;;;;;;;;;5045479;28;20067;-81
2022/06/08 12:50:47;;;;;;;6.28;2.13;;;;;;;;;;5046256;28;20032;-81
2022/06/08 12:53:14;;;;;;;7.10;2.55;;;;;;;;;;5056030;28;20016;-82
2022/06/08 12:55:40;;;;;;;3.28;2.20;;;;;;;;;;5052049;28;20028;-82
2022/06/08 12:58:07;;;;;;;5.30;2.67;;;;;;;;;;5037158;28;20071;-81
2022/06/08 13:00:36;;;;;;;6.57;2.97;;;;;;;;;;5039035;28;20083;-81
2022/06/08 13:03:07;;;;;;;6.38;2.90;;;;;;;;;;5043379;28;20029;-81
2022/06/08 13:05:35;;;;;;;4.20;2.20;;;;;;;;;;5039333;28;20028;-81
2022/06/08 13:08:01;;;;;;;4.50;2.63;;;;;;;;;;5047458;28;20097;-81
2022/06/08 13:10:29;;;;;;;4.28;2.53;;;;;;;;;;5060273;28;20114;-82
2022/06/08 13:12:59;;;;;;;5.65;2.65;;;;;;;;;;5061593;28;20036;-82
2022/06/08 13:15:27;;;;;;;5.50;2.92;;;;;;;;;;5057345;28;20036;-82
2022/06/08 13:17:54;;;;;;;6.15;2.33;;;;;;;;;;5043265;28;20037;-82
2022/06/08 13:20:26;;;;;;;4.63;2.63;;;;;;;;;;5041408;28;20039;-81
2022/06/08 13:22:53;;;;;;;5.63;2.47;;;;;;;;;;5055150;28;20486;-81
2022/06/08 13:25:21;;;;;;;3.58;2.38;;;;;;;;;;5062638;28;20024;-81
2022/06/08 13:27:48;;;;;;;4.88;2.58;;;;;;;;;;5062229;28;20388;-81
2022/06/08 13:30:17;;;;;;;5.78;2.47;;;;;;;;;;5046685;28;20032;-81
2022/06/08 13:32:43;;;;;;;3.60;2.20;;;;;;;;;;5042971;28;20031;-81
2022/06/08 13:35:10;;;;;;;4.55;2.70;;;;;;;;;;5041320;28;20025;-81
2022/06/08 13:37:41;;;;;;;5.07;2.38;;;;;;;;;;5046039;28;20028;-80
2022/06/08 13:40:16;;;;;;;7.38;2.35;;;;;;;;;;5044733;28;20041;-81
2022/06/08 13:42:44;;;;;;;3.05;2.28;;;;;;;;;;5052515;28;20032;-80
2022/06/08 13:45:15;;;;;;;5.53;2.60;;;;;;;;;;5041322;28;20106;-80
2022/06/08 13:47:43;;;;;;;10.93;3.03;;;;;;;;;;5047709;28;20024;-79
2022/06/08 13:50:12;;;;;;;7.32;2.83;;;;;;;;;;5060213;28;21074;-80
2022/06/08 13:52:40;;;;;;;6.40;2.60;;;;;;;;;;5051963;28;20652;-78
2022/06/08 13:55:23;;;;;;;7.00;2.63;;;;;;;;;;5040854;28;20025;-78
2022/06/08 13:57:50;;;;;;;5.45;2.38;;;;;;;;;;5040234;28;20044;-80
2022/06/08 14:00:16;;;;;;;5.22;2.00;;;;;;;;;;5041788;28;20041;-78
2022/06/08 14:02:46;;;;;;;3.83;2.53;;;;;;;;;;5042381;28;20517;-80
2022/06/08 14:05:17;;;;;;;5.25;2.50;;;;;;;;;;5048567;28;20043;-79
2022/06/08 14:13:21;;;;;;;6.70;2.33;;;;;;;;;;5048417;28;20091;-79
2022/06/08 14:15:48;;;;;;;3.92;2.50;;;;;;;;;;5042167;28;20037;-80
2022/06/08 14:18:18;;;;;;;5.95;2.70;;;;;;;;;;5040707;28;20485;-79
2022/06/08 14:20:45;;;;;;;5.57;2.78;;;;;;;;;;5044214;28;20041;-79
2022/06/08 14:23:13;;;;;;;4.78;2.75;;;;;;;;;;5053954;28;20052;-79
2022/06/08 14:25:39;;;;;;;6.65;3.33;;;;;;;;;;5041288;28;21747;-78
2022/06/08 14:28:06;;;;;;;8.52;3.38;;;;;;;;;;5055662;28;20039;-79
2022/06/08 14:30:32;;;;;;;9.35;3.03;;;;;;;;;;5059546;28;20085;-78
2022/06/08 14:33:00;;;;;;;5.63;3.05;;;;;;;;;;5059199;28;20036;-79
2022/06/08 14:35:37;;;;;;;4.93;2.70;;;;;;;;;;5041351;28;20434;-79
2022/06/08 14:38:03;;;;;;;6.82;3.35;;;;;;;;;;5047768;28;20027;-78
2022/06/08 14:40:32;;;;;;;9.90;3.20;;;;;;;;;;5059305;28;20397;-78
2022/06/08 14:42:59;;;;;;;6.68;3.35;;;;;;;;;;5057420;28;20029;-78
2022/06/08 14:45:26;;;;;;;10.07;3.47;;;;;;;;;;5050365;28;20067;-80
2022/06/08 14:47:53;;;;;;;7.53;3.70;;;;;;;;;;5039744;28;20568;-80
2022/06/08 14:50:22;;;;;;;13.80;3.88;;;;;;;;;;5046415;28;20025;-85
2022/06/08 14:52:48;;;;;;;12.70;3.95;;;;;;;;;;5043373;28;20095;-76
2022/06/08 14:58:01;;;;;;;10.65;3.42;;;;;;;;;;5057800;28;20199;-78
2022/06/08 15:00:28;;;;;;;5.97;2.97;;;;;;;;;;5048143;28;20037;-79
2022/06/08 15:02:54;;;;;;;8.23;3.22;;;;;;;;;;5050346;28;20017;-80
2022/06/08 15:05:21;;;;;;;6.30;2.88;;;;;;;;;;5048392;28;20056;-82
2022/06/08 15:07:47;;;;;;;8.80;3.70;;;;;;;;;;5042260;28;20041;-79
2022/06/08 15:10:14;;;;;;;6.05;3.15;;;;;;;;;;5047861;28;20044;-83
2022/06/08 15:12:41;;;;;;;5.35;3.15;;;;;;;;;;5047631;28;20029;-79
2022/06/08 15:15:15;;;;;;;6.90;3.15;;;;;;;;;;5047157;28;20060;-81
2022/06/08 15:17:42;;;;;;;6.97;2.85;;;;;;;;;;5047011;28;20032;-81